Time;durP1;ratioP1;P1;durP2;ratioP2;P2;SDS_P1;SDS_P2;PMS_P1;PMS_P2;Temp;Humidity;BMP_temperature;BMP_pressure;BME280_temperature;BME280_humidity;BME280_pressure;Samples;Min_cycle;Max_cycle;Signal;HPM_P1;HPM_P2
2021/01/27 00:00:34;;;;;;;;;;;;;;;0.38;93.99;98316.20;1662629;86;20260;-63
2021/01/27 00:03:03;;;;;;;;;;;;;;;0.38;93.97;98309.72;1662545;86;20498;-63
2021/01/27 00:05:34;;;;;;;;;;;;;;;0.37;93.82;98301.48;1662510;86;21498;-63
2021/01/27 00:08:04;;;;;;;;;;;;;;;0.36;93.72;98298.86;1664913;85;20621;-63
2021/01/27 00:10:32;;;;;;;;;;;;;;;0.36;93.70;98304.92;1670702;86;20120;-63
2021/01/27 00:13:01;;;;;;;;;;;;;;;0.36;93.66;98294.97;1670688;86;20502;-63
2021/01/27 00:15:32;;;;;;;;;;;;;;;0.35;93.66;98295.39;1670805;86;20247;-64
2021/01/27 00:18:00;;;;;;;;;;;;;;;0.35;93.67;98295.81;1670722;86;21435;-63
2021/01/27 00:20:30;;;;;;;;;;;;;;;0.35;93.69;98293.22;1670721;86;20271;-64
2021/01/27 00:22:59;;;;;;;;;;;;;;;0.34;93.68;98282.39;1670747;86;20316;-64
2021/01/27 00:25:30;;;;;;;;;;;;;;;0.33;93.76;98280.22;1670688;86;20252;-63
2021/01/27 00:27:58;;;;;;;;;;;;;;;0.34;93.77;98281.97;1670633;86;20271;-64
2021/01/27 00:30:29;;;;;;;;;;;;;;;0.36;93.80;98282.00;1670750;86;21234;-64
2021/01/27 00:32:58;;;;;;;;;;;;;;;0.36;93.81;98276.39;1670669;86;20248;-63
2021/01/27 00:35:29;;;;;;;;;;;;;;;0.38;93.80;98276.42;1670710;86;20232;-64
2021/01/27 00:37:58;;;;;;;;;;;;;;;0.39;93.85;98273.86;1670673;86;20168;-64
2021/01/27 00:40:27;;;;;;;;;;;;;;;0.39;93.91;98270.39;1670743;86;20236;-64
2021/01/27 00:42:56;;;;;;;;;;;;;;;0.36;94.00;98256.94;1670776;86;22121;-64
2021/01/27 00:45:25;;;;;;;;;;;;;;;0.35;94.08;98260.38;1670707;86;20516;-66
2021/01/27 00:47:53;;;;;;;;;;;;;;;0.31;94.17;98252.08;1670783;86;20227;-64
2021/01/27 00:50:22;;;;;;;;;;;;;;;0.31;94.26;98248.19;1670693;86;20687;-64
2021/01/27 00:52:51;;;;;;;;;;;;;;;0.29;94.32;98244.27;1670748;86;20522;-63
2021/01/27 00:55:24;;;;;;;;;;;;;;;0.29;94.29;98240.80;1670736;86;21391;-63
2021/01/27 00:57:53;;;;;;;;;;;;;;;0.25;94.24;98235.09;1670739;86;20503;-63
2021/01/27 01:00:24;;;;;;;;;;;;;;;0.22;94.25;98230.72;1670719;86;20232;-63
2021/01/27 01:02:52;;;;;;;;;;;;;;;0.19;94.21;98224.61;1670702;86;20244;-63
2021/01/27 01:05:24;;;;;;;;;;;;;;;0.16;94.23;98228.44;1670714;86;20236;-63
2021/01/27 01:07:52;;;;;;;;;;;;;;;0.17;94.29;98234.08;1670094;86;22135;-63
2021/01/27 01:10:27;;;;;;;;;;;;;;;0.16;94.30;98227.14;1662479;86;20251;-63
2021/01/27 01:12:57;;;;;;;;;;;;;;;0.14;94.23;98223.64;1662485;85;20235;-63
2021/01/27 01:15:29;;;;;;;;;;;;;;;0.13;94.13;98223.19;1662506;86;20256;-63
2021/01/27 01:17:57;;;;;;;;;;;;;;;0.10;94.10;98223.13;1662530;86;20519;-64
2021/01/27 01:20:26;;;;;;;;;;;;;;;0.08;94.14;98223.52;1662564;86;22255;-64
2021/01/27 01:22:56;;;;;;;;;;;;;;;0.08;94.22;98228.70;1662472;86;20164;-64
2021/01/27 01:25:26;;;;;;;;;;;;;;;0.07;94.23;98221.34;1662539;86;20511;-64
2021/01/27 01:27:55;;;;;;;;;;;;;;;0.06;94.15;98226.50;1662718;85;20249;-63
2021/01/27 01:30:32;;;;;;;;;;;;;;;0.04;94.23;98224.30;1662632;85;20227;-64
2021/01/27 01:33:04;;;;;;;;;;;;;;;0.03;94.30;98220.83;1662667;86;22233;-64
2021/01/27 01:35:33;;;;;;;;;;;;;;;-0.01;94.39;98206.02;1662655;86;20145;-63
2021/01/27 01:38:02;;;;;;;;;;;;;;;-0.03;94.46;98211.18;1662624;86;20223;-63
2021/01/27 01:40:33;;;;;;;;;;;;;;;-0.09;94.50;98213.64;1662604;86;20517;-64
2021/01/27 01:43:13;;;;;;;;;;;;;;;-0.13;94.57;98210.96;1662627;85;20140;-64
2021/01/27 01:45:44;;;;;;;;;;;;;;;-0.19;94.60;98202.64;1662582;85;23468;-63
2021/01/27 01:48:24;;;;;;;;;;;;;;;-0.24;94.75;98199.50;1662564;85;20257;-63
2021/01/27 01:51:12;;;;;;;;;;;;;;;-0.28;94.93;98204.16;1662611;86;20540;-63
2021/01/27 01:53:40;;;;;;;;;;;;;;;-0.31;95.19;98202.37;1662672;86;20554;-63
2021/01/27 01:56:10;;;;;;;;;;;;;;;-0.33;95.41;98194.99;1662638;85;20549;-64
2021/01/27 01:58:39;;;;;;;;;;;;;;;-0.36;95.55;98193.21;1662585;85;21218;-65
2021/01/27 02:01:07;;;;;;;;;;;;;;;-0.38;95.80;98192.73;1662559;86;20235;-65
2021/01/27 02:03:37;;;;;;;;;;;;;;;-0.44;95.94;98189.58;1662625;86;20519;-65
2021/01/27 02:06:09;;;;;;;;;;;;;;;-0.49;96.13;98186.41;1662577;86;20220;-65
2021/01/27 02:08:41;;;;;;;;;;;;;;;-0.55;96.34;98189.73;1662526;85;20245;-65
2021/01/27 02:11:14;;;;;;;;;;;;;;;-0.57;96.58;98190.55;1662620;85;22232;-66
2021/01/27 02:14:04;;;;;;;;;;;;;;;-0.61;96.81;98193.48;1662573;85;20236;-67
2021/01/27 02:16:42;;;;;;;;;;;;;;;-0.66;97.09;98188.20;1662664;85;20514;-66
2021/01/27 02:19:35;;;;;;;;;;;;;;;-0.71;97.42;98183.34;1662560;86;20248;-64
2021/01/27 02:22:19;;;;;;;;;;;;;;;-0.74;97.65;98179.81;1650104;86;20503;-63
2021/01/27 02:25:13;;;;;;;;;;;;;;;-0.80;97.92;98174.08;1662699;85;22156;-64
2021/01/27 02:27:44;;;;;;;;;;;;;;;-0.84;98.20;98175.27;1662475;85;20230;-65
2021/01/27 02:30:42;;;;;;;;;;;;;;;-0.85;98.50;98160.15;1662533;85;20260;-65
2021/01/27 02:33:48;;;;;;;;;;;;;;;-0.86;98.77;98159.70;1662546;86;20248;-65
2021/01/27 02:36:28;;;;;;;;;;;;;;;-0.91;99.09;98156.13;1662605;85;20511;-65
2021/01/27 02:39:05;;;;;;;;;;;;;;;-0.91;99.44;98154.83;1662608;85;21230;-65
2021/01/27 02:41:45;;;;;;;;;;;;;;;-0.91;99.75;98156.13;1662593;85;20495;-65
2021/01/27 02:44:16;;;;;;;;;;;;;;;-0.90;100.00;98160.89;1662622;86;20224;-65
2021/01/27 02:46:48;;;;;;;;;;;;;;;-0.91;100.00;98163.89;1662474;85;20144;-64
2021/01/27 02:49:22;;;;;;;;;;;;;;;-0.94;100.00;98169.00;1662621;86;20231;-64
2021/01/27 02:51:53;;;;;;;;;;;;;;;-0.92;100.00;98176.38;1662532;86;21468;-64
2021/01/27 02:54:23;;;;;;;;;;;;;;;-0.90;100.00;98171.24;1662523;85;20524;-65
2021/01/27 02:56:55;;;;;;;;;;;;;;;-0.91;100.00;98173.38;1662531;85;20498;-64
2021/01/27 02:59:33;;;;;;;;;;;;;;;-0.92;100.00;98171.63;1662533;86;20564;-65
2021/01/27 03:02:07;;;;;;;;;;;;;;;-0.94;100.00;98168.12;1662597;85;20228;-64
2021/01/27 03:04:40;;;;;;;;;;;;;;;-0.96;100.00;98169.35;1662577;86;22178;-64
2021/01/27 03:07:09;;;;;;;;;;;;;;;-0.98;100.00;98168.44;1662591;86;20648;-64
2021/01/27 03:09:47;;;;;;;;;;;;;;;-0.99;100.00;98162.39;1662530;85;20228;-64
2021/01/27 03:12:16;;;;;;;;;;;;;;;-1.02;100.00;98165.33;1662676;85;20585;-66
2021/01/27 03:14:47;;;;;;;;;;;;;;;-1.02;100.00;98166.20;1662516;85;20515;-63
2021/01/27 03:17:17;;;;;;;;;;;;;;;-1.05;100.00;98159.66;1662586;86;21230;-63
2021/01/27 03:19:59;;;;;;;;;;;;;;;-1.08;100.00;98160.01;1662533;86;20140;-63
2021/01/27 03:22:34;;;;;;;;;;;;;;;-1.10;100.00;98156.51;1662643;86;20502;-65
2021/01/27 03:25:08;;;;;;;;;;;;;;;-1.11;100.00;98162.52;1662530;86;20231;-65
2021/01/27 03:27:41;;;;;;;;;;;;;;;-1.11;100.00;98163.81;1662477;86;20232;-66
2021/01/27 03:30:12;;;;;;;;;;;;;;;-1.11;100.00;98165.11;1662475;85;21219;-65
2021/01/27 03:32:56;;;;;;;;;;;;;;;-1.12;100.00;98161.65;1662525;86;20219;-65
2021/01/27 03:35:38;;;;;;;;;;;;;;;-1.11;100.00;98166.41;1662529;86;20236;-65
2021/01/27 03:38:29;;;;;;;;;;;;;;;-1.13;100.00;98160.32;1662544;85;20221;-64
2021/01/27 03:41:04;;;;;;;;;;;;;;;-1.14;100.00;98167.20;1662546;86;20515;-64
2021/01/27 03:43:39;;;;;;;;;;;;;;;-1.13;100.00;98159.90;1662532;86;20617;-66
2021/01/27 03:46:28;;;;;;;;;;;;;;;-1.15;100.00;98163.29;1657939;86;20491;-65
2021/01/27 03:49:00;;;;;;;;;;;;;;;-1.15;100.00;98169.34;1662607;86;20241;-65
2021/01/27 03:51:30;;;;;;;;;;;;;;;-1.12;100.00;98171.13;1662472;86;20226;-66
2021/01/27 03:54:00;;;;;;;;;;;;;;;-1.12;100.00;98155.18;1662626;86;20224;-66
2021/01/27 03:56:42;;;;;;;;;;;;;;;-1.15;100.00;98164.16;1662495;86;21390;-66
2021/01/27 03:59:11;;;;;;;;;;;;;;;-1.15;100.00;98168.47;1662447;85;20176;-65
2021/01/27 04:01:52;;;;;;;;;;;;;;;-1.14;100.00;98168.92;1662527;86;20240;-66
2021/01/27 04:04:21;;;;;;;;;;;;;;;-1.12;100.00;98172.42;1662270;86;20494;-66
2021/01/27 04:06:50;;;;;;;;;;;;;;;-1.14;100.00;98172.38;1662600;85;20181;-65
2021/01/27 04:09:19;;;;;;;;;;;;;;;-1.14;100.00;98174.09;1662445;85;21441;-66
2021/01/27 04:11:49;;;;;;;;;;;;;;;-1.13;100.00;98178.02;1662380;85;20307;-64
2021/01/27 04:14:18;;;;;;;;;;;;;;;-1.11;100.00;98178.92;1662453;85;20222;-64
2021/01/27 04:16:48;;;;;;;;;;;;;;;-1.08;100.00;98182.88;1662500;86;20220;-65
2021/01/27 04:19:17;;;;;;;;;;;;;;;-1.06;100.00;98190.27;1662611;85;20231;-67
2021/01/27 04:21:46;;;;;;;;;;;;;;;-1.04;100.00;98198.06;1662521;85;21284;-64
2021/01/27 04:24:15;;;;;;;;;;;;;;;-1.02;100.00;98193.80;1662476;86;20224;-64
2021/01/27 04:26:44;;;;;;;;;;;;;;;-0.99;100.00;98197.33;1662564;86;20491;-64
2021/01/27 04:29:14;;;;;;;;;;;;;;;-0.96;100.00;98196.11;1647980;84;20146;-64
2021/01/27 04:31:43;;;;;;;;;;;;;;;-0.94;100.00;98194.02;1661991;85;20136;-65
2021/01/27 04:34:12;;;;;;;;;;;;;;;-0.93;100.00;98199.64;1665607;85;21361;-66
2021/01/27 04:36:41;;;;;;;;;;;;;;;-0.92;100.00;98199.68;1665621;85;20689;-66
2021/01/27 04:39:10;;;;;;;;;;;;;;;-0.94;100.00;98193.59;1665543;85;20153;-64
2021/01/27 04:41:40;;;;;;;;;;;;;;;-0.93;100.00;98199.64;1665590;85;20991;-66
2021/01/27 04:44:09;;;;;;;;;;;;;;;-0.93;100.00;98199.23;1665612;85;20342;-62
2021/01/27 04:46:39;;;;;;;;;;;;;;;-0.93;100.00;98204.83;1637173;87;21391;-62
2021/01/27 04:49:26;;;;;;;;;;;;;;;-0.93;100.00;98201.81;1670579;85;20223;-62
2021/01/27 04:52:12;;;;;;;;;;;;;;;-0.90;100.00;98207.48;1633471;88;20226;-65
2021/01/27 04:54:48;;;;;;;;;;;;;;;-0.89;100.00;98210.53;1662581;85;20227;-63
2021/01/27 04:57:38;;;;;;;;;;;;;;;-0.87;100.00;98213.61;1665387;85;20502;-64
2021/01/27 05:00:17;;;;;;;;;;;;;;;-0.84;100.00;98215.39;1637369;87;21214;-64
2021/01/27 05:03:01;;;;;;;;;;;;;;;-0.81;100.00;98221.94;1665764;85;20140;-64
2021/01/27 05:05:34;;;;;;;;;;;;;;;-0.81;100.00;98213.75;1665832;85;20507;-63
2021/01/27 05:08:09;;;;;;;;;;;;;;;-0.78;100.00;98216.83;1637311;87;20258;-63
2021/01/27 05:10:42;;;;;;;;;;;;;;;-0.76;100.00;98221.62;1673267;84;20497;-63
2021/01/27 05:13:23;;;;;;;;;;;;;;;-0.73;100.00;98208.75;1679309;85;22290;-63
2021/01/27 05:16:11;;;;;;;;;;;;;;;-0.64;100.00;98204.66;1845008;77;20265;-63
2021/01/27 05:18:40;;;;;;;;;;;;;;;-0.66;100.00;98210.64;1820201;79;20507;-64
2021/01/27 05:21:30;;;;;;;;;;;;;;;-0.66;100.00;98197.69;1820174;79;21201;-64
2021/01/27 05:24:00;;;;;;;;;;;;;;;-0.67;100.00;98201.13;1815979;78;20168;-65
2021/01/27 05:26:40;;;;;;;;;;;;;;;-0.68;100.00;98188.59;1820211;79;20422;-66
2021/01/27 05:29:14;;;;;;;;;;;;;;;-0.66;100.00;98189.92;1820124;78;20148;-66
2021/01/27 05:32:04;;;;;;;;;;;;;;;-0.65;100.00;98192.97;1820171;79;20514;-65
2021/01/27 05:34:42;;;;;;;;;;;;;;;-0.65;100.00;98192.55;1820208;78;22109;-65
2021/01/27 05:37:20;;;;;;;;;;;;;;;-0.68;100.00;98183.83;1820049;79;20546;-66
2021/01/27 05:39:49;;;;;;;;;;;;;;;-0.71;100.00;98179.88;1818141;79;20148;-66
2021/01/27 05:42:21;;;;;;;;;;;;;;;-0.75;100.00;98178.94;1820098;79;20511;-66
2021/01/27 05:44:56;;;;;;;;;;;;;;;-0.78;100.00;98186.63;1820218;79;20240;-65
2021/01/27 05:47:36;;;;;;;;;;;;;;;-0.78;100.00;98185.76;1820233;78;21194;-66
2021/01/27 05:50:29;;;;;;;;;;;;;;;-0.79;100.00;98182.30;1820170;78;20523;-66
2021/01/27 05:53:16;;;;;;;;;;;;;;;-0.81;100.00;98182.69;1820210;79;20161;-66
2021/01/27 05:56:03;;;;;;;;;;;;;;;-0.82;100.00;98183.52;1809629;78;20601;-65
2021/01/27 05:58:33;;;;;;;;;;;;;;;-0.86;100.00;98176.94;1820124;79;20527;-66
2021/01/27 06:01:17;;;;;;;;;;;;;;;-0.86;100.00;98176.94;1820072;79;21188;-66
2021/01/27 06:03:54;;;;;;;;;;;;;;;-0.85;100.00;98177.40;1820049;79;20279;-66
2021/01/27 06:06:24;;;;;;;;;;;;;;;-0.86;100.00;98181.70;1820146;79;20526;-65
2021/01/27 06:08:56;;;;;;;;;;;;;;;-0.88;100.00;98180.80;1820113;79;20514;-64
2021/01/27 06:11:25;;;;;;;;;;;;;;;-0.86;100.00;98178.23;1820171;78;20526;-65
2021/01/27 06:14:10;;;;;;;;;;;;;;;-0.86;100.00;98173.94;1820033;78;22109;-65
2021/01/27 06:16:45;;;;;;;;;;;;;;;-0.84;100.00;98167.08;1784491;79;20647;-64
2021/01/27 06:19:21;;;;;;;;;;;;;;;-0.82;100.00;98167.98;1790358;80;20142;-65
2021/01/27 06:22:01;;;;;;;;;;;;;;;-0.80;100.00;98169.31;1790334;79;20150;-65
2021/01/27 06:25:08;;;;;;;;;;;;;;;-0.81;100.00;98161.97;1790425;79;20528;-65
2021/01/27 06:27:47;;;;;;;;;;;;;;;-0.82;100.00;98156.34;1789776;80;22302;-64
2021/01/27 06:30:38;;;;;;;;;;;;;;;-0.81;100.00;98158.50;1789771;79;20492;-65
2021/01/27 06:33:45;;;;;;;;;;;;;;;-0.82;100.00;98152.45;1789796;80;20547;-65
2021/01/27 06:36:32;;;;;;;;;;;;;;;-0.84;100.00;98156.72;1789760;80;20150;-64
2021/01/27 06:39:16;;;;;;;;;;;;;;;-0.85;100.00;98153.68;1789917;79;20591;-65
2021/01/27 06:41:58;;;;;;;;;;;;;;;-0.88;100.00;98152.31;1789761;80;22213;-65
2021/01/27 06:44:39;;;;;;;;;;;;;;;-0.89;100.00;98152.28;1789756;79;20126;-63
2021/01/27 06:47:23;;;;;;;;;;;;;;;-0.91;100.00;98149.66;1789805;80;20540;-65
2021/01/27 06:50:14;;;;;;;;;;;;;;;-0.93;100.00;98151.34;1789787;80;20521;-65
2021/01/27 06:52:53;;;;;;;;;;;;;;;-0.94;100.00;98156.48;1789934;79;20147;-65
2021/01/27 06:55:42;;;;;;;;;;;;;;;-0.93;100.00;98160.39;1789830;79;22118;-65
2021/01/27 06:58:23;;;;;;;;;;;;;;;-0.93;100.00;98157.81;1789576;80;20632;-64
2021/01/27 07:01:07;;;;;;;;;;;;;;;-0.93;100.00;98163.41;1789774;80;20569;-64
2021/01/27 07:03:41;;;;;;;;;;;;;;;-0.91;100.00;98161.30;1785191;80;20511;-65
2021/01/27 07:06:17;;;;;;;;;;;;;;;-0.90;100.00;98161.76;1789764;79;20217;-65
2021/01/27 07:09:09;;;;;;;;;;;;;;;-0.89;100.00;98158.75;1789863;80;22116;-65
2021/01/27 07:11:54;;;;;;;;;;;;;;;-0.86;100.00;98158.82;1789837;79;20524;-65
2021/01/27 07:14:42;;;;;;;;;;;;;;;-0.86;100.00;98150.64;1790956;78;20547;-66
2021/01/27 07:17:37;;;;;;;;;;;;;;;-0.84;100.00;98149.37;1808269;79;20307;-67
2021/01/27 07:20:18;;;;;;;;;;;;;;;-0.81;100.00;98157.21;1808370;79;20511;-66
2021/01/27 07:23:02;;;;;;;;;;;;;;;-0.81;100.00;98149.44;1808317;79;21205;-66
2021/01/27 07:25:55;;;;;;;;;;;;;;;-0.79;100.00;98152.52;1808305;79;20145;-64
2021/01/27 07:28:26;;;;;;;;;;;;;;;-0.79;100.00;98151.22;1808382;79;20142;-64
2021/01/27 07:31:08;;;;;;;;;;;;;;;-0.79;100.00;98160.70;1808358;79;20613;-65
2021/01/27 07:34:06;;;;;;;;;;;;;;;-0.84;100.00;98158.02;1808331;79;20126;-64
2021/01/27 07:37:02;;;;;;;;;;;;;;;-0.83;100.00;98168.83;1808279;79;23413;-66
2021/01/27 07:40:07;;;;;;;;;;;;;;;-0.81;100.00;98170.16;1808370;79;20506;-65
2021/01/27 07:42:45;;;;;;;;;;;;;;;-0.80;100.00;98168.89;1808351;79;20125;-66
2021/01/27 07:45:18;;;;;;;;;;;;;;;-0.79;100.00;98173.66;1808288;79;20141;-67
2021/01/27 07:48:02;;;;;;;;;;;;;;;-0.81;100.00;98177.50;1784032;79;20165;-64
2021/01/27 07:50:32;;;;;;;;;;;;;;;-0.80;100.00;98174.08;1808340;79;21196;-65
2021/01/27 07:53:13;;;;;;;;;;;;;;;-0.80;100.00;98171.48;1808217;79;20153;-65
2021/01/27 07:55:53;;;;;;;;;;;;;;;-0.78;100.00;98167.64;1808317;79;20495;-66
2021/01/27 07:58:42;;;;;;;;;;;;;;;-0.79;100.00;98173.66;1798254;79;20507;-65
2021/01/27 08:01:17;;;;;;;;;;;;;;;-0.77;100.00;98175.86;1808284;79;20177;-65
2021/01/27 08:04:11;;;;;;;;;;;;;;;-0.75;100.00;98162.52;1808305;79;21193;-65
2021/01/27 08:06:44;;;;;;;;;;;;;;;-0.73;100.00;98163.02;1808194;79;20165;-65
2021/01/27 08:09:13;;;;;;;;;;;;;;;-0.70;100.00;98159.62;1808304;79;20531;-65
2021/01/27 08:11:43;;;;;;;;;;;;;;;-0.68;100.00;98151.46;1808253;79;20168;-64
2021/01/27 08:14:15;;;;;;;;;;;;;;;-0.69;100.00;98148.00;1808343;79;20519;-65
2021/01/27 08:16:47;;;;;;;;;;;;;;;-0.65;100.00;98155.41;1791240;79;22393;-65
2021/01/27 08:19:18;;;;;;;;;;;;;;;-0.65;100.00;98158.88;1789629;80;20261;-64
2021/01/27 08:21:59;;;;;;;;;;;;;;;-0.61;100.00;98156.35;1789496;79;20126;-65
2021/01/27 08:24:41;;;;;;;;;;;;;;;-0.60;100.00;98155.52;1789679;80;20150;-65
2021/01/27 08:27:19;;;;;;;;;;;;;;;-0.60;100.00;98151.63;1789769;80;20146;-65
2021/01/27 08:30:05;;;;;;;;;;;;;;;-0.60;100.00;98151.20;1789556;80;21938;-64
2021/01/27 08:32:37;;;;;;;;;;;;;;;-0.61;100.00;98147.29;1789614;80;20125;-65
2021/01/27 08:35:09;;;;;;;;;;;;;;;-0.64;100.00;98144.22;1789819;79;20520;-65
2021/01/27 08:37:38;;;;;;;;;;;;;;;-0.61;100.00;98142.11;1789730;79;20169;-65
2021/01/27 08:40:12;;;;;;;;;;;;;;;-0.61;100.00;98141.69;1789675;79;20516;-66
2021/01/27 08:42:55;;;;;;;;;;;;;;;-0.59;100.00;98145.19;1789725;79;21369;-65
2021/01/27 08:45:26;;;;;;;;;;;;;;;-0.55;100.00;98143.53;1789645;80;20154;-65
2021/01/27 08:47:58;;;;;;;;;;;;;;;-0.50;100.00;98139.33;1789655;79;20170;-65
2021/01/27 08:50:45;;;;;;;;;;;;;;;-0.48;100.00;98145.41;1789640;79;20145;-65
2021/01/27 08:53:22;;;;;;;;;;;;;;;-0.46;100.00;98142.05;1789725;80;20523;-66
2021/01/27 08:55:56;;;;;;;;;;;;;;;-0.40;100.00;98149.06;1789678;80;22360;-65
2021/01/27 08:58:38;;;;;;;;;;;;;;;-0.35;100.00;98148.74;1789717;79;20161;-65
2021/01/27 09:01:25;;;;;;;;;;;;;;;-0.32;100.00;98153.98;1789698;79;20241;-65
2021/01/27 09:03:54;;;;;;;;;;;;;;;-0.30;100.00;98151.42;1789700;79;20507;-66
2021/01/27 09:06:41;;;;;;;;;;;;;;;-0.25;100.00;98157.16;1789696;80;20126;-66
2021/01/27 09:09:23;;;;;;;;;;;;;;;-0.22;100.00;98157.22;1789691;80;21197;-65
2021/01/27 09:12:01;;;;;;;;;;;;;;;-0.21;100.00;98151.61;1789529;79;20512;-64
2021/01/27 09:14:30;;;;;;;;;;;;;;;-0.19;100.00;98157.70;1789730;80;20504;-65
2021/01/27 09:17:00;;;;;;;;;;;;;;;-0.15;100.00;98149.14;1789532;78;20511;-65
2021/01/27 09:19:31;;;;;;;;;;;;;;;-0.11;100.00;98149.66;1789685;79;20227;-65
2021/01/27 09:22:05;;;;;;;;;;;;;;;-0.06;100.00;98148.90;1789783;80;22124;-65
2021/01/27 09:24:36;;;;;;;;;;;;;;;-0.04;100.00;98140.73;1789610;80;20146;-66
2021/01/27 09:27:23;;;;;;;;;;;;;;;-0.02;100.00;98145.52;1789801;79;20126;-65
2021/01/27 09:30:04;;;;;;;;;;;;;;;0.03;100.00;98129.21;1789731;80;20507;-65
2021/01/27 09:32:33;;;;;;;;;;;;;;;0.05;100.00;98130.98;1789685;79;20503;-64
2021/01/27 09:35:13;;;;;;;;;;;;;;;0.09;100.00;98133.22;1789619;79;21358;-64
2021/01/27 09:37:47;;;;;;;;;;;;;;;0.13;100.00;98127.23;1786570;80;20157;-66
2021/01/27 09:40:28;;;;;;;;;;;;;;;0.16;100.00;98119.09;1758812;80;20130;-66
2021/01/27 09:42:59;;;;;;;;;;;;;;;0.18;100.00;98117.83;1788835;80;20166;-64
2021/01/27 09:45:30;;;;;;;;;;;;;;;0.19;100.00;98116.55;1789683;80;20262;-65
2021/01/27 09:47:58;;;;;;;;;;;;;;;0.18;100.00;98124.31;1789614;80;22436;-64
2021/01/27 09:50:27;;;;;;;;;;;;;;;0.16;100.00;98122.11;1789676;79;20507;-65
2021/01/27 09:53:00;;;;;;;;;;;;;;;0.16;100.00;98113.91;1789683;79;20237;-65
2021/01/27 09:55:29;;;;;;;;;;;;;;;0.16;100.00;98113.91;1789696;79;20254;-65
2021/01/27 09:57:57;;;;;;;;;;;;;;;0.17;100.00;98113.48;1789674;80;20524;-65
2021/01/27 10:00:32;;;;;;;;;;;;;;;0.17;100.00;98114.78;1789664;80;21243;-65
2021/01/27 10:03:28;;;;;;;;;;;;;;;0.18;100.00;98104.86;1789734;79;20185;-65
2021/01/27 10:05:57;;;;;;;;;;;;;;;0.18;100.00;98104.86;1789811;79;20241;-64
2021/01/27 10:08:34;;;;;;;;;;;;;;;0.18;100.00;98097.08;1789806;79;20257;-65
2021/01/27 10:11:13;;;;;;;;;;;;;;;0.18;100.00;98100.97;1785443;79;20161;-65
2021/01/27 10:13:42;;;;;;;;;;;;;;;0.18;100.00;98096.66;1789907;80;21325;-64
2021/01/27 10:16:12;;;;;;;;;;;;;;;0.22;100.00;98108.83;1797478;78;20646;-65
2021/01/27 10:18:42;;;;;;;;;;;;;;;0.24;100.00;98104.97;1808285;79;20204;-65
2021/01/27 10:21:13;;;;;;;;;;;;;;;0.26;100.00;98100.26;1808403;79;20568;-64
2021/01/27 10:23:48;;;;;;;;;;;;;;;0.24;100.00;98087.69;1808374;79;20283;-65
2021/01/27 10:26:37;;;;;;;;;;;;;;;0.23;100.00;98090.25;1808335;79;21239;-63
2021/01/27 10:29:20;;;;;;;;;;;;;;;0.21;100.00;98096.70;1808284;79;20549;-63
2021/01/27 10:31:54;;;;;;;;;;;;;;;0.22;100.00;98097.58;1808399;79;20145;-63
2021/01/27 10:34:40;;;;;;;;;;;;;;;0.22;100.00;98088.50;1808338;79;20534;-63
2021/01/27 10:37:28;;;;;;;;;;;;;;;0.19;100.00;98094.94;1808389;79;20228;-65
2021/01/27 10:40:18;;;;;;;;;;;;;;;0.19;100.00;98098.83;1808417;79;22064;-64
2021/01/27 10:42:52;;;;;;;;;;;;;;;0.19;100.00;98089.75;1808368;79;20522;-64
2021/01/27 10:45:25;;;;;;;;;;;;;;;0.21;100.00;98083.74;1808346;79;20230;-64
2021/01/27 10:48:20;;;;;;;;;;;;;;;0.22;100.00;98066.04;1808312;79;20161;-64
2021/01/27 10:50:51;;;;;;;;;;;;;;;0.24;100.00;98062.17;1808355;79;20239;-64
2021/01/27 10:53:21;;;;;;;;;;;;;;;0.26;100.00;98063.08;1806758;79;22217;-64
2021/01/27 10:55:56;;;;;;;;;;;;;;;0.27;100.00;98059.20;1808216;79;20145;-64
2021/01/27 10:58:24;;;;;;;;;;;;;;;0.31;100.00;98053.65;1808350;79;20149;-65
2021/01/27 11:00:53;;;;;;;;;;;;;;;0.34;100.00;98038.13;1808337;79;20516;-65
2021/01/27 11:03:22;;;;;;;;;;;;;;;0.33;100.00;98046.77;1808345;79;20245;-65
2021/01/27 11:05:51;;;;;;;;;;;;;;;0.32;100.00;98041.13;1808290;79;21350;-64
2021/01/27 11:08:28;;;;;;;;;;;;;;;0.33;100.00;98041.58;1808287;79;20509;-65
2021/01/27 11:10:56;;;;;;;;;;;;;;;0.36;100.00;98037.73;1808332;79;20237;-66
2021/01/27 11:13:25;;;;;;;;;;;;;;;0.38;100.00;98027.38;1808304;79;20228;-65
2021/01/27 11:15:54;;;;;;;;;;;;;;;0.39;100.00;98027.41;1805036;79;20416;-65
2021/01/27 11:18:23;;;;;;;;;;;;;;;0.40;100.00;98020.07;1789748;79;21332;-65
2021/01/27 11:20:52;;;;;;;;;;;;;;;0.41;100.00;98027.01;1789722;79;20259;-65
2021/01/27 11:23:21;;;;;;;;;;;;;;;0.43;100.00;98027.03;1789771;80;20512;-65
2021/01/27 11:25:50;;;;;;;;;;;;;;;0.46;100.00;98010.22;1789734;79;20507;-65
2021/01/27 11:28:22;;;;;;;;;;;;;;;0.44;100.00;98015.38;1789776;79;20233;-65
2021/01/27 11:30:50;;;;;;;;;;;;;;;0.39;100.00;98020.92;1789824;80;20523;-65
2021/01/27 11:33:21;;;;;;;;;;;;;;;0.36;100.00;98018.28;1789545;79;20543;-64
2021/01/27 11:35:50;;;;;;;;;;;;;;;0.35;100.00;98016.53;1789768;80;20500;-64
2021/01/27 11:38:19;;;;;;;;;;;;;;;0.33;100.00;98016.94;1789690;79;20308;-64
2021/01/27 11:40:48;;;;;;;;;;;;;;;0.29;100.00;98016.02;1789711;79;20507;-64
2021/01/27 11:43:17;;;;;;;;;;;;;;;0.27;100.00;98015.12;1789679;79;21363;-64
2021/01/27 11:45:45;;;;;;;;;;;;;;;0.27;100.00;98012.95;1789649;79;20237;-64
2021/01/27 11:48:28;;;;;;;;;;;;;;;0.26;100.00;98005.59;1726364;83;20496;-64
2021/01/27 11:50:57;;;;;;;;;;;;;;;0.26;100.00;98008.19;1728233;82;20678;-64
2021/01/27 11:53:26;;;;;;;;;;;;;;;0.26;100.00;98005.59;1728281;83;20488;-63
2021/01/27 11:55:55;;;;;;;;;;;;;;;0.23;100.00;98002.95;1728200;82;21997;-64
2021/01/27 11:58:24;;;;;;;;;;;;;;;0.24;100.00;98016.36;1728129;82;20137;-64
2021/01/27 12:00:53;;;;;;;;;;;;;;;0.25;100.00;98011.63;1728279;83;20133;-64
2021/01/27 12:03:22;;;;;;;;;;;;;;;0.28;100.00;98026.36;1728169;83;20291;-63
2021/01/27 12:05:54;;;;;;;;;;;;;;;0.29;100.00;98017.73;1728250;83;20492;-64
2021/01/27 12:08:23;;;;;;;;;;;;;;;0.28;100.00;98018.16;1728228;83;21378;-65
2021/01/27 12:10:53;;;;;;;;;;;;;;;0.30;100.00;98018.19;1728173;83;20157;-65
2021/01/27 12:13:24;;;;;;;;;;;;;;;0.33;100.00;98023.84;1728200;83;20558;-65
2021/01/27 12:15:52;;;;;;;;;;;;;;;0.32;100.00;98019.08;1728267;82;20844;-64
2021/01/27 12:18:22;;;;;;;;;;;;;;;0.31;100.00;98018.20;1728211;83;20589;-64
2021/01/27 12:20:51;;;;;;;;;;;;;;;0.28;100.00;98024.64;1728271;83;22065;-64
2021/01/27 12:23:20;;;;;;;;;;;;;;;0.25;100.00;98028.91;1728141;83;20138;-65
2021/01/27 12:25:50;;;;;;;;;;;;;;;0.20;100.00;98022.35;1728298;82;20476;-64
2021/01/27 12:28:19;;;;;;;;;;;;;;;0.14;100.00;98024.84;1728217;82;20240;-64
2021/01/27 12:30:48;;;;;;;;;;;;;;;0.10;100.00;98026.06;1728198;83;20213;-64
2021/01/27 12:33:17;;;;;;;;;;;;;;;0.07;100.00;98029.91;1728177;83;21133;-64
2021/01/27 12:35:46;;;;;;;;;;;;;;;0.04;100.00;98025.95;1728204;83;20714;-65
2021/01/27 12:38:14;;;;;;;;;;;;;;;0.03;100.00;98024.21;1707971;83;20158;-64
2021/01/27 12:40:44;;;;;;;;;;;;;;;-0.03;100.00;98023.23;1728184;83;20220;-65
2021/01/27 12:43:14;;;;;;;;;;;;;;;-0.10;100.00;98020.50;1728222;83;20133;-65
2021/01/27 12:45:43;;;;;;;;;;;;;;;-0.13;100.00;98022.62;1728182;83;21205;-65
2021/01/27 12:48:12;;;;;;;;;;;;;;;-0.13;100.00;98023.04;1752251;80;20358;-64
2021/01/27 12:50:41;;;;;;;;;;;;;;;-0.14;100.00;98018.70;1754552;82;20183;-65
2021/01/27 12:53:17;;;;;;;;;;;;;;;-0.15;100.00;98012.64;1754521;81;20527;-65
2021/01/27 12:55:45;;;;;;;;;;;;;;;-0.19;100.00;98012.56;1754559;82;20505;-65
2021/01/27 12:58:15;;;;;;;;;;;;;;;-0.21;100.00;98006.06;1754520;82;21204;-65
2021/01/27 13:00:43;;;;;;;;;;;;;;;-0.22;100.00;97995.24;1754454;82;20226;-65
2021/01/27 13:03:13;;;;;;;;;;;;;;;-0.23;100.00;97974.06;1754623;81;20482;-64
2021/01/27 13:05:42;;;;;;;;;;;;;;;-0.25;100.00;97991.30;1754564;82;20598;-65
2021/01/27 13:08:10;;;;;;;;;;;;;;;-0.28;100.00;97993.84;1754529;82;20493;-65
2021/01/27 13:10:43;;;;;;;;;;;;;;;-0.30;100.00;97989.48;1754605;81;22125;-65
2021/01/27 13:13:13;;;;;;;;;;;;;;;-0.34;100.00;97985.95;1754473;81;20232;-66
2021/01/27 13:15:42;;;;;;;;;;;;;;;-0.35;100.00;97981.63;1754490;82;20156;-65
2021/01/27 13:18:13;;;;;;;;;;;;;;;-0.40;100.00;97977.66;1754452;82;20219;-65
2021/01/27 13:21:07;;;;;;;;;;;;;;;-0.41;100.00;97978.92;1754654;81;20502;-65
2021/01/27 13:23:31;;;;;;;;;;;;;;;-0.38;100.00;97971.20;1754703;80;21266;-65